createdAt,value
2022-12-21T00:02:33.101Z,95688.28
2022-12-21T00:07:46.318Z,95684.38
2022-12-21T00:12:59.013Z,95681.72
2022-12-21T00:18:01.711Z,95684.81
2022-12-21T00:23:04.333Z,95668.19
2022-12-21T00:28:06.993Z,95679.38
2022-12-21T00:33:09.715Z,95678.34
2022-12-21T00:38:12.416Z,95670.16
2022-12-21T00:43:15.099Z,95659.16
2022-12-21T00:48:17.882Z,95661.59
2022-12-21T00:53:21.280Z,95670.94
2022-12-21T00:58:24.347Z,95669.31
2022-12-21T01:03:27.461Z,95667.56
2022-12-21T01:08:30.184Z,95669.63
2022-12-21T01:13:32.843Z,95682.00
2022-12-21T01:18:35.585Z,95666.25
2022-12-21T01:23:38.899Z,95669.09
2022-12-21T01:28:41.565Z,95676.75
2022-12-21T01:33:44.324Z,95667.25
2022-12-21T01:38:47.377Z,95670.00
2022-12-21T01:43:50.012Z,95667.50
2022-12-21T01:48:52.725Z,95652.59
2022-12-21T01:53:55.437Z,95647.13
2022-12-21T01:58:58.012Z,95643.06
2022-12-21T02:04:00.985Z,95640.63
2022-12-21T02:09:03.649Z,95634.91
2022-12-21T02:14:09.523Z,95616.53
2022-12-21T02:19:12.398Z,95617.19
2022-12-21T02:24:15.081Z,95613.94
2022-12-21T02:29:17.777Z,95626.19
2022-12-21T02:34:20.435Z,95631.84
2022-12-21T02:39:23.658Z,95631.34
2022-12-21T02:44:26.483Z,95647.00
2022-12-21T02:49:29.688Z,95653.84
2022-12-21T02:54:32.493Z,95662.31
2022-12-21T02:59:35.622Z,95671.78
2022-12-21T03:04:38.433Z,95673.88
2022-12-21T03:09:41.558Z,95666.59
2022-12-21T03:14:44.293Z,95665.09
2022-12-21T03:19:47.190Z,95661.13
2022-12-21T03:24:49.810Z,95652.34
2022-12-21T03:29:52.538Z,95652.91
2022-12-21T03:34:55.569Z,95653.00
2022-12-21T03:40:04.395Z,95656.22
2022-12-21T03:45:07.972Z,95655.03
2022-12-21T03:50:10.593Z,95647.13
2022-12-21T03:55:13.204Z,95646.31
2022-12-21T04:00:15.866Z,95637.63
2022-12-21T04:05:21.959Z,95635.53
2022-12-21T04:10:24.584Z,95638.97
2022-12-21T04:15:47.540Z,95642.59
2022-12-21T04:20:50.385Z,95637.88
2022-12-21T04:26:11.131Z,95640.91
2022-12-21T04:31:14.215Z,95637.38
2022-12-21T04:36:34.589Z,95649.78
2022-12-21T04:41:37.219Z,95643.72
2022-12-21T04:46:40.241Z,95638.63
2022-12-21T04:51:42.862Z,95645.81
2022-12-21T04:56:45.728Z,95643.25
2022-12-21T05:01:48.739Z,95643.97
2022-12-21T05:06:55.970Z,95645.34
2022-12-21T05:11:58.732Z,95655.31
2022-12-21T05:17:08.760Z,95647.13
2022-12-21T05:22:11.390Z,95646.78
2022-12-21T05:27:14.429Z,95651.63
2022-12-21T05:32:17.089Z,95648.38
2022-12-21T05:37:19.695Z,95644.34
2022-12-21T05:42:22.842Z,95647.81
2022-12-21T05:47:26.605Z,95658.06
2022-12-21T05:52:29.312Z,95662.53
2022-12-21T05:57:32.139Z,95669.72
2022-12-21T06:02:34.951Z,95667.56
2022-12-21T06:07:38.642Z,95666.75
2022-12-21T06:12:41.312Z,95671.16
2022-12-21T06:17:43.918Z,95668.00
2022-12-21T06:22:46.612Z,95674.28
2022-12-21T06:27:49.208Z,95668.94
2022-12-21T06:32:51.806Z,95675.44
2022-12-21T06:37:54.792Z,95667.94
2022-12-21T06:42:57.615Z,95675.44
2022-12-21T06:48:00.458Z,95683.31
2022-12-21T06:53:03.228Z,95687.38
2022-12-21T06:58:05.867Z,95689.28
2022-12-21T07:03:08.834Z,95682.03
2022-12-21T07:08:11.536Z,95689.78
2022-12-21T07:13:14.150Z,95685.75
2022-12-21T07:18:16.800Z,95683.66
2022-12-21T07:23:19.438Z,95697.22
2022-12-21T07:28:25.654Z,95699.28
2022-12-21T07:33:28.312Z,95698.16
2022-12-21T07:38:30.939Z,95693.75
2022-12-21T07:43:33.553Z,95697.22
2022-12-21T07:48:36.504Z,95698.34
2022-12-21T07:53:39.315Z,95696.72
2022-12-21T07:58:41.955Z,95687.09
2022-12-21T08:03:45.937Z,95701.31
2022-12-21T08:08:48.643Z,95692.94
2022-12-21T08:13:51.307Z,95689.41
2022-12-21T08:18:53.916Z,95683.94
2022-12-21T08:23:56.536Z,95692.28
2022-12-21T08:29:01.719Z,95693.66
2022-12-21T08:34:05.571Z,95682.13
2022-12-21T08:39:10.174Z,95688.09
2022-12-21T08:44:13.452Z,95688.84
2022-12-21T08:49:16.255Z,95684.31
2022-12-21T08:54:18.933Z,95681.06
2022-12-21T08:59:21.770Z,95683.16
2022-12-21T09:04:24.508Z,95687.00
2022-12-21T09:09:27.872Z,95684.84
2022-12-21T09:14:30.654Z,95687.50
2022-12-21T09:19:33.359Z,95680.22
2022-12-21T09:24:39.487Z,95677.63
2022-12-21T09:29:42.111Z,95672.72
2022-12-21T09:34:44.778Z,95669.81
2022-12-21T09:39:47.813Z,95666.88
2022-12-21T09:44:50.562Z,95669.16
2022-12-21T09:49:53.335Z,95654.78
2022-12-21T09:54:56.028Z,95645.44
2022-12-21T09:59:58.768Z,95651.38
2022-12-21T10:05:11.462Z,95647.25
2022-12-21T10:10:15.410Z,95649.50
2022-12-21T10:15:18.124Z,95642.69
2022-12-21T10:20:20.791Z,95651.84
2022-12-21T10:25:24.294Z,95646.59
2022-12-21T10:30:27.097Z,95646.31
2022-12-21T10:35:29.869Z,95655.22
2022-12-21T10:40:32.472Z,95636.34
2022-12-21T10:45:35.198Z,95633.91
2022-12-21T10:50:37.884Z,95630.25
2022-12-21T10:55:40.626Z,95621.19
2022-12-21T11:00:48.982Z,95621.72
2022-12-21T11:05:52.300Z,95616.09
2022-12-21T11:10:55.601Z,95609.91
2022-12-21T11:16:01.881Z,95612.75
2022-12-21T11:21:05.520Z,95611.94
2022-12-21T11:26:08.091Z,95602.34
2022-12-21T11:31:10.926Z,95598.88
2022-12-21T11:36:13.991Z,95593.28
2022-12-21T11:41:16.850Z,95584.16
2022-12-21T11:46:48.783Z,95573.47
2022-12-21T11:51:44.875Z,95568.66
2022-12-21T11:56:47.473Z,95564.13
2022-12-21T12:01:50.132Z,95559.00
2022-12-21T12:06:55.483Z,95560.66
2022-12-21T12:12:00.286Z,95558.22
2022-12-21T12:17:04.720Z,95552.34
2022-12-21T12:22:07.400Z,95546.94
2022-12-21T12:27:10.126Z,95541.34
2022-12-21T12:32:15.438Z,95545.34
2022-12-21T12:37:18.152Z,95547.75
2022-12-21T12:42:21.847Z,95548.31
2022-12-21T12:47:24.800Z,95538.47
2022-12-21T12:52:27.943Z,95542.50
2022-12-21T12:57:30.907Z,95538.28
2022-12-21T13:02:34.737Z,95545.81
2022-12-21T13:07:37.463Z,95532.44
2022-12-21T13:12:40.195Z,95539.13
2022-12-21T13:17:42.884Z,95527.56
2022-12-21T13:22:47.677Z,95533.19
2022-12-21T13:27:50.924Z,95540.97
2022-12-21T13:32:54.230Z,95549.84
2022-12-21T13:37:57.039Z,95553.06
2022-12-21T13:43:04.218Z,95551.44
2022-12-21T13:48:10.291Z,95552.53
2022-12-21T13:53:13.342Z,95555.19
2022-12-21T13:58:15.940Z,95558.13
2022-12-21T14:03:18.821Z,95560.53
2022-12-21T14:08:21.662Z,95552.75
2022-12-21T14:13:27.327Z,95550.09
2022-12-21T14:18:36.859Z,95549.56
2022-12-21T14:23:39.475Z,95550.38
2022-12-21T14:28:42.260Z,95557.59
2022-12-21T14:34:17.071Z,95550.38
2022-12-21T14:39:08.869Z,95545.53
2022-12-21T14:44:23.143Z,95544.69
2022-12-21T14:49:25.839Z,95541.22
2022-12-21T14:54:28.525Z,95549.53
2022-12-21T14:59:31.749Z,95548.13
2022-12-21T15:04:35.346Z,95555.63
2022-12-21T15:09:38.036Z,95560.66
2022-12-21T15:14:40.827Z,95560.59
2022-12-21T15:19:44.182Z,95569.94
2022-12-21T15:24:48.985Z,95559.53
2022-12-21T15:29:52.129Z,95556.03
2022-12-21T15:34:54.866Z,95558.34
2022-12-21T15:40:01.537Z,95559.69
2022-12-21T15:45:04.298Z,95556.63
2022-12-21T15:50:07.316Z,95550.66
2022-12-21T15:55:10.514Z,95539.69
2022-12-21T16:00:13.339Z,95529.47
2022-12-21T16:05:16.371Z,95538.03
2022-12-21T16:10:18.992Z,95546.84
2022-12-21T16:15:23.732Z,95546.38
2022-12-21T16:20:26.343Z,95548.19
2022-12-21T16:25:30.933Z,95555.16
2022-12-21T16:30:34.818Z,95550.19
2022-12-21T16:35:37.459Z,95552.28
2022-12-21T16:40:41.671Z,95550.72
2022-12-21T16:45:46.350Z,95552.69
2022-12-21T16:50:49.291Z,95550.56
2022-12-21T16:55:52.296Z,95556.63
2022-12-21T17:00:55.026Z,95555.31
2022-12-21T17:06:00.271Z,95558.53
2022-12-21T17:11:04.129Z,95555.31
2022-12-21T17:16:07.096Z,95567.31
2022-12-21T17:21:38.879Z,95568.13
2022-12-21T17:26:32.707Z,95580.03
2022-12-21T17:31:36.073Z,95587.94
2022-12-21T17:36:38.774Z,95590.22
2022-12-21T17:41:41.383Z,95588.38
2022-12-21T17:46:44.097Z,95591.47
2022-12-21T17:51:47.134Z,95597.69
2022-12-21T17:56:51.148Z,95593.34
2022-12-21T18:01:57.638Z,95583.81
2022-12-21T18:07:00.800Z,95584.75
2022-12-21T18:12:03.501Z,95579.22
2022-12-21T18:17:06.196Z,95573.34
2022-12-21T18:22:09.292Z,95574.78
2022-12-21T18:27:12.125Z,95567.41
2022-12-21T18:32:14.835Z,95565.88
2022-12-21T18:37:17.579Z,95558.00
2022-12-21T18:42:20.196Z,95560.13
2022-12-21T18:47:30.337Z,95560.47
2022-12-21T18:52:40.531Z,95575.50
2022-12-21T18:57:43.949Z,95571.66
2022-12-21T19:02:48.432Z,95560.63
2022-12-21T19:07:53.117Z,95558.53
2022-12-21T19:12:56.327Z,95553.50
2022-12-21T19:17:58.951Z,95539.75
2022-12-21T19:23:03.120Z,95544.31
2022-12-21T19:28:06.301Z,95541.81
2022-12-21T19:33:09.320Z,95546.38
2022-12-21T19:38:12.399Z,95553.09
2022-12-21T19:43:15.432Z,95564.34
2022-12-21T19:48:19.180Z,95557.81
2022-12-21T19:53:22.613Z,95562.16
2022-12-21T19:58:26.286Z,95548.84
2022-12-21T20:03:30.661Z,95544.75
2022-12-21T20:08:33.984Z,95530.78
2022-12-21T20:13:36.865Z,95521.19
2022-12-21T20:18:40.039Z,95530.06
2022-12-21T20:23:43.362Z,95526.75
2022-12-21T20:28:46.997Z,95526.59
2022-12-21T20:33:50.893Z,95524.88
2022-12-21T20:38:59.560Z,95509.28
2022-12-21T20:44:02.731Z,95498.59
2022-12-21T20:49:05.732Z,95488.41
2022-12-21T20:54:08.565Z,95494.75
2022-12-21T20:59:11.203Z,95495.16
2022-12-21T21:04:13.948Z,95493.16
2022-12-21T21:09:28.861Z,95484.00
2022-12-21T21:14:34.758Z,95490.91
2022-12-21T21:19:46.944Z,95488.47
2022-12-21T21:24:51.211Z,95478.81
2022-12-21T21:30:01.798Z,95489.94
2022-12-21T21:35:08.264Z,95487.19
2022-12-21T21:40:28.884Z,95484.28
2022-12-21T21:45:31.751Z,95482.44
2022-12-21T21:50:34.584Z,95488.38
2022-12-21T21:55:37.422Z,95484.81
2022-12-21T22:00:40.044Z,95491.59
2022-12-21T22:05:43.988Z,95476.50
2022-12-21T22:10:46.747Z,95488.59
2022-12-21T22:15:52.080Z,95490.16
2022-12-21T22:21:12.409Z,95480.16
2022-12-21T22:26:32.471Z,95474.63
2022-12-21T22:31:52.918Z,95471.63
2022-12-21T22:37:13.496Z,95463.56
2022-12-21T22:42:32.813Z,95461.53
2022-12-21T22:47:36.081Z,95458.47
2022-12-21T22:52:38.773Z,95469.75
2022-12-21T22:57:41.417Z,95459.66
2022-12-21T23:02:44.579Z,95447.59
2022-12-21T23:07:47.297Z,95438.78
2022-12-21T23:13:17.651Z,95435.47
2022-12-21T23:18:37.262Z,95429.00
2022-12-21T23:23:57.734Z,95411.28
2022-12-21T23:29:00.610Z,95422.16
2022-12-21T23:34:21.288Z,95418.63
2022-12-21T23:39:41.745Z,95411.63
2022-12-21T23:44:44.363Z,95409.25
2022-12-21T23:50:04.391Z,95408.28
2022-12-21T23:55:24.541Z,95409.31
